sensor_id;sensor_type;location;lat;lon;timestamp;P1;durP1;ratioP1;P2;durP2;ratioP2
20298;SDS011;10308;42.688;23.256;2024-03-23T00:56:10;16.95;;;14.00;;
20298;SDS011;10308;42.688;23.256;2024-03-23T00:58:38;19.17;;;13.80;;
20298;SDS011;10308;42.688;23.256;2024-03-23T01:01:05;17.58;;;13.50;;
20298;SDS011;10308;42.688;23.256;2024-03-23T01:03:30;15.25;;;13.68;;
20298;SDS011;10308;42.688;23.256;2024-03-23T01:05:59;14.77;;;13.27;;
20298;SDS011;10308;42.688;23.256;2024-03-23T01:08:25;16.23;;;13.65;;
20298;SDS011;10308;42.688;23.256;2024-03-23T01:10:54;16.75;;;14.40;;
20298;SDS011;10308;42.688;23.256;2024-03-23T01:13:22;16.45;;;14.20;;
20298;SDS011;10308;42.688;23.256;2024-03-23T01:15:49;14.98;;;13.00;;
20298;SDS011;10308;42.688;23.256;2024-03-23T01:18:16;17.33;;;14.23;;
20298;SDS011;10308;42.688;23.256;2024-03-23T01:20:43;21.88;;;16.77;;
20298;SDS011;10308;42.688;23.256;2024-03-23T01:23:09;24.13;;;18.67;;
20298;SDS011;10308;42.688;23.256;2024-03-23T01:25:39;24.20;;;18.55;;
20298;SDS011;10308;42.688;23.256;2024-03-23T01:28:05;20.42;;;17.85;;
20298;SDS011;10308;42.688;23.256;2024-03-23T01:30:34;22.27;;;16.38;;
20298;SDS011;10308;42.688;23.256;2024-03-23T01:33:00;19.73;;;14.68;;
20298;SDS011;10308;42.688;23.256;2024-03-23T01:35:27;18.23;;;15.38;;
20298;SDS011;10308;42.688;23.256;2024-03-23T01:37:53;15.57;;;13.38;;
20298;SDS011;10308;42.688;23.256;2024-03-23T01:40:20;14.23;;;12.73;;
20298;SDS011;10308;42.688;23.256;2024-03-23T01:42:54;14.57;;;12.73;;
20298;SDS011;10308;42.688;23.256;2024-03-23T01:45:25;12.40;;;11.10;;
20298;SDS011;10308;42.688;23.256;2024-03-23T01:47:52;12.60;;;11.27;;
20298;SDS011;10308;42.688;23.256;2024-03-23T01:50:19;13.52;;;11.15;;
20298;SDS011;10308;42.688;23.256;2024-03-23T01:52:46;14.63;;;12.93;;
20298;SDS011;10308;42.688;23.256;2024-03-23T01:55:13;15.73;;;14.13;;
20298;SDS011;10308;42.688;23.256;2024-03-23T01:57:39;15.15;;;13.65;;
20298;SDS011;10308;42.688;23.256;2024-03-23T02:00:07;16.50;;;14.75;;
20298;SDS011;10308;42.688;23.256;2024-03-23T02:02:34;14.50;;;13.10;;
20298;SDS011;10308;42.688;23.256;2024-03-23T02:05:03;19.40;;;14.15;;
20298;SDS011;10308;42.688;23.256;2024-03-23T02:07:29;16.33;;;13.85;;
20298;SDS011;10308;42.688;23.256;2024-03-23T02:09:56;15.23;;;13.60;;
20298;SDS011;10308;42.688;23.256;2024-03-23T02:12:22;15.48;;;13.93;;
20298;SDS011;10308;42.688;23.256;2024-03-23T02:14:49;14.23;;;12.73;;
20298;SDS011;10308;42.688;23.256;2024-03-23T02:17:15;13.20;;;11.77;;
20298;SDS011;10308;42.688;23.256;2024-03-23T02:19:42;14.05;;;11.30;;
20298;SDS011;10308;42.688;23.256;2024-03-23T02:22:09;12.55;;;10.00;;
20298;SDS011;10308;42.688;23.256;2024-03-23T02:24:38;12.35;;;10.50;;
20298;SDS011;10308;42.688;23.256;2024-03-23T02:27:04;12.55;;;10.60;;
20298;SDS011;10308;42.688;23.256;2024-03-23T02:29:31;11.70;;;10.50;;
20298;SDS011;10308;42.688;23.256;2024-03-23T02:31:57;11.93;;;10.68;;
20298;SDS011;10308;42.688;23.256;2024-03-23T02:34:25;13.18;;;11.88;;
20298;SDS011;10308;42.688;23.256;2024-03-23T02:36:52;11.50;;;10.45;;
20298;SDS011;10308;42.688;23.256;2024-03-23T02:39:19;11.40;;;10.20;;
20298;SDS011;10308;42.688;23.256;2024-03-23T02:41:46;13.13;;;10.95;;
20298;SDS011;10308;42.688;23.256;2024-03-23T02:44:13;12.77;;;11.40;;
20298;SDS011;10308;42.688;23.256;2024-03-23T02:46:39;13.57;;;11.60;;
20298;SDS011;10308;42.688;23.256;2024-03-23T02:49:09;12.43;;;11.15;;
20298;SDS011;10308;42.688;23.256;2024-03-23T02:51:35;12.55;;;11.35;;
20298;SDS011;10308;42.688;23.256;2024-03-23T02:54:02;12.35;;;11.18;;
20298;SDS011;10308;42.688;23.256;2024-03-23T02:56:28;11.57;;;10.35;;
20298;SDS011;10308;42.688;23.256;2024-03-23T02:58:56;11.77;;;10.68;;
20298;SDS011;10308;42.688;23.256;2024-03-23T03:01:22;11.65;;;10.55;;
20298;SDS011;10308;42.688;23.256;2024-03-23T03:03:49;11.98;;;10.80;;
20298;SDS011;10308;42.688;23.256;2024-03-23T03:06:22;11.52;;;10.32;;
20298;SDS011;10308;42.688;23.256;2024-03-23T03:08:49;10.93;;;9.95;;
20298;SDS011;10308;42.688;23.256;2024-03-23T03:11:15;10.70;;;9.80;;
20298;SDS011;10308;42.688;23.256;2024-03-23T03:13:42;11.32;;;10.23;;
20298;SDS011;10308;42.688;23.256;2024-03-23T03:16:10;11.40;;;10.30;;
20298;SDS011;10308;42.688;23.256;2024-03-23T03:18:44;12.07;;;10.60;;
20298;SDS011;10308;42.688;23.256;2024-03-23T03:21:13;11.43;;;10.27;;
20298;SDS011;10308;42.688;23.256;2024-03-23T03:23:41;12.02;;;10.93;;
20298;SDS011;10308;42.688;23.256;2024-03-23T03:26:07;11.15;;;10.05;;
20298;SDS011;10308;42.688;23.256;2024-03-23T03:28:34;12.15;;;10.90;;
20298;SDS011;10308;42.688;23.256;2024-03-23T03:31:00;12.77;;;10.45;;
20298;SDS011;10308;42.688;23.256;2024-03-23T03:33:29;12.90;;;10.57;;
20298;SDS011;10308;42.688;23.256;2024-03-23T03:35:55;12.60;;;11.30;;
20298;SDS011;10308;42.688;23.256;2024-03-23T03:38:24;13.13;;;11.43;;
20298;SDS011;10308;42.688;23.256;2024-03-23T03:40:50;13.02;;;11.32;;
20298;SDS011;10308;42.688;23.256;2024-03-23T03:43:18;17.60;;;11.93;;
20298;SDS011;10308;42.688;23.256;2024-03-23T03:45:50;12.18;;;10.65;;
20298;SDS011;10308;42.688;23.256;2024-03-23T03:48:18;13.30;;;10.88;;
20298;SDS011;10308;42.688;23.256;2024-03-23T03:50:45;11.93;;;10.73;;
20298;SDS011;10308;42.688;23.256;2024-03-23T03:53:12;10.77;;;9.70;;
20298;SDS011;10308;42.688;23.256;2024-03-23T03:55:38;12.98;;;11.10;;
20298;SDS011;10308;42.688;23.256;2024-03-23T03:58:05;14.57;;;11.57;;
20298;SDS011;10308;42.688;23.256;2024-03-23T04:00:32;12.18;;;10.82;;
20298;SDS011;10308;42.688;23.256;2024-03-23T04:02:58;12.32;;;11.02;;
20298;SDS011;10308;42.688;23.256;2024-03-23T04:05:26;11.88;;;10.55;;
20298;SDS011;10308;42.688;23.256;2024-03-23T04:07:53;12.27;;;11.18;;
20298;SDS011;10308;42.688;23.256;2024-03-23T04:10:20;13.40;;;11.00;;
20298;SDS011;10308;42.688;23.256;2024-03-23T04:12:46;12.77;;;11.35;;
20298;SDS011;10308;42.688;23.256;2024-03-23T04:15:14;14.95;;;11.20;;
20298;SDS011;10308;42.688;23.256;2024-03-23T04:17:40;12.75;;;10.73;;
20298;SDS011;10308;42.688;23.256;2024-03-23T04:20:09;11.48;;;10.32;;
20298;SDS011;10308;42.688;23.256;2024-03-23T04:22:36;12.93;;;10.90;;
20298;SDS011;10308;42.688;23.256;2024-03-23T04:25:05;12.88;;;11.50;;
20298;SDS011;10308;42.688;23.256;2024-03-23T04:27:31;12.70;;;10.80;;
20298;SDS011;10308;42.688;23.256;2024-03-23T04:29:59;13.60;;;11.85;;
20298;SDS011;10308;42.688;23.256;2024-03-23T04:32:26;14.63;;;10.95;;
20298;SDS011;10308;42.688;23.256;2024-03-23T04:34:54;14.02;;;11.00;;
20298;SDS011;10308;42.688;23.256;2024-03-23T04:37:19;13.48;;;10.75;;
20298;SDS011;10308;42.688;23.256;2024-03-23T04:39:47;12.50;;;10.80;;
20298;SDS011;10308;42.688;23.256;2024-03-23T04:42:16;12.55;;;11.27;;
20298;SDS011;10308;42.688;23.256;2024-03-23T04:44:43;21.20;;;12.88;;
20298;SDS011;10308;42.688;23.256;2024-03-23T04:47:11;19.02;;;13.02;;
20298;SDS011;10308;42.688;23.256;2024-03-23T04:49:38;16.60;;;12.63;;
20298;SDS011;10308;42.688;23.256;2024-03-23T04:52:05;15.23;;;12.38;;
20298;SDS011;10308;42.688;23.256;2024-03-23T04:54:32;20.67;;;13.77;;
20298;SDS011;10308;42.688;23.256;2024-03-23T04:56:59;21.00;;;13.30;;
20298;SDS011;10308;42.688;23.256;2024-03-23T04:59:28;20.23;;;14.50;;
20298;SDS011;10308;42.688;23.256;2024-03-23T05:01:55;15.13;;;13.52;;
20298;SDS011;10308;42.688;23.256;2024-03-23T05:04:22;20.58;;;13.70;;
20298;SDS011;10308;42.688;23.256;2024-03-23T05:06:49;15.40;;;12.52;;
20298;SDS011;10308;42.688;23.256;2024-03-23T05:09:15;13.88;;;12.40;;
20298;SDS011;10308;42.688;23.256;2024-03-23T05:11:42;17.90;;;12.40;;
20298;SDS011;10308;42.688;23.256;2024-03-23T05:14:08;13.57;;;12.15;;
20298;SDS011;10308;42.688;23.256;2024-03-23T05:16:36;15.38;;;12.73;;
20298;SDS011;10308;42.688;23.256;2024-03-23T05:19:03;14.60;;;11.90;;
20298;SDS011;10308;42.688;23.256;2024-03-23T05:21:30;13.25;;;11.90;;
20298;SDS011;10308;42.688;23.256;2024-03-23T05:23:56;15.73;;;12.52;;
20298;SDS011;10308;42.688;23.256;2024-03-23T05:26:23;14.70;;;12.35;;
20298;SDS011;10308;42.688;23.256;2024-03-23T05:28:49;13.52;;;12.15;;
20298;SDS011;10308;42.688;23.256;2024-03-23T05:31:22;14.80;;;12.13;;
20298;SDS011;10308;42.688;23.256;2024-03-23T05:33:50;14.93;;;12.50;;
20298;SDS011;10308;42.688;23.256;2024-03-23T05:36:17;13.90;;;12.25;;
20298;SDS011;10308;42.688;23.256;2024-03-23T05:38:43;14.82;;;13.20;;
20298;SDS011;10308;42.688;23.256;2024-03-23T05:41:10;13.68;;;12.05;;
20298;SDS011;10308;42.688;23.256;2024-03-23T05:43:35;13.98;;;12.57;;
20298;SDS011;10308;42.688;23.256;2024-03-23T05:46:03;13.75;;;12.35;;
20298;SDS011;10308;42.688;23.256;2024-03-23T05:48:29;13.10;;;11.70;;
20298;SDS011;10308;42.688;23.256;2024-03-23T05:50:58;15.55;;;12.82;;
20298;SDS011;10308;42.688;23.256;2024-03-23T05:53:24;13.85;;;12.40;;
20298;SDS011;10308;42.688;23.256;2024-03-23T05:55:51;14.38;;;12.88;;
20298;SDS011;10308;42.688;23.256;2024-03-23T05:58:19;14.40;;;12.93;;
20298;SDS011;10308;42.688;23.256;2024-03-23T06:00:46;15.00;;;13.52;;
20298;SDS011;10308;42.688;23.256;2024-03-23T06:03:12;15.45;;;13.73;;
20298;SDS011;10308;42.688;23.256;2024-03-23T06:05:39;14.40;;;12.98;;
20298;SDS011;10308;42.688;23.256;2024-03-23T06:08:07;13.18;;;11.90;;
20298;SDS011;10308;42.688;23.256;2024-03-23T06:10:34;23.38;;;20.50;;
20298;SDS011;10308;42.688;23.256;2024-03-23T06:13:00;23.77;;;21.27;;
20298;SDS011;10308;42.688;23.256;2024-03-23T06:15:27;19.38;;;17.48;;
20298;SDS011;10308;42.688;23.256;2024-03-23T06:17:53;23.92;;;21.33;;
20298;SDS011;10308;42.688;23.256;2024-03-23T06:20:20;24.00;;;21.40;;
20298;SDS011;10308;42.688;23.256;2024-03-23T06:22:46;27.55;;;24.60;;
20298;SDS011;10308;42.688;23.256;2024-03-23T06:25:15;28.25;;;25.45;;
20298;SDS011;10308;42.688;23.256;2024-03-23T06:27:41;26.45;;;23.77;;
20298;SDS011;10308;42.688;23.256;2024-03-23T06:30:09;25.75;;;23.08;;
20298;SDS011;10308;42.688;23.256;2024-03-23T06:32:35;26.30;;;23.58;;
20298;SDS011;10308;42.688;23.256;2024-03-23T06:35:02;26.50;;;23.80;;
20298;SDS011;10308;42.688;23.256;2024-03-23T06:37:33;26.77;;;23.40;;
20298;SDS011;10308;42.688;23.256;2024-03-23T06:40:00;23.05;;;20.67;;
20298;SDS011;10308;42.688;23.256;2024-03-23T06:42:28;21.95;;;19.58;;
20298;SDS011;10308;42.688;23.256;2024-03-23T06:44:56;19.98;;;17.88;;
20298;SDS011;10308;42.688;23.256;2024-03-23T06:47:22;18.15;;;16.25;;
20298;SDS011;10308;42.688;23.256;2024-03-23T06:49:51;15.02;;;13.52;;
20298;SDS011;10308;42.688;23.256;2024-03-23T06:52:17;12.80;;;11.20;;
20298;SDS011;10308;42.688;23.256;2024-03-23T06:54:46;13.13;;;11.85;;
20298;SDS011;10308;42.688;23.256;2024-03-23T06:57:12;12.70;;;11.40;;
20298;SDS011;10308;42.688;23.256;2024-03-23T06:59:41;13.85;;;11.38;;
20298;SDS011;10308;42.688;23.256;2024-03-23T07:02:08;13.38;;;11.50;;
20298;SDS011;10308;42.688;23.256;2024-03-23T07:04:36;12.63;;;11.30;;
20298;SDS011;10308;42.688;23.256;2024-03-23T07:07:05;11.95;;;10.23;;
20298;SDS011;10308;42.688;23.256;2024-03-23T07:09:34;12.02;;;10.73;;
20298;SDS011;10308;42.688;23.256;2024-03-23T07:12:00;14.80;;;12.63;;
20298;SDS011;10308;42.688;23.256;2024-03-23T07:14:27;13.00;;;11.70;;
20298;SDS011;10308;42.688;23.256;2024-03-23T07:16:54;15.45;;;11.63;;
20298;SDS011;10308;42.688;23.256;2024-03-23T07:19:21;12.35;;;11.10;;
20298;SDS011;10308;42.688;23.256;2024-03-23T07:21:48;14.48;;;12.63;;
20298;SDS011;10308;42.688;23.256;2024-03-23T07:24:15;14.80;;;13.30;;
20298;SDS011;10308;42.688;23.256;2024-03-23T07:26:41;14.38;;;13.05;;
20298;SDS011;10308;42.688;23.256;2024-03-23T07:29:09;14.43;;;13.07;;
20298;SDS011;10308;42.688;23.256;2024-03-23T07:31:35;14.65;;;12.95;;
20298;SDS011;10308;42.688;23.256;2024-03-23T07:34:03;14.32;;;12.90;;
20298;SDS011;10308;42.688;23.256;2024-03-23T07:36:31;18.17;;;14.23;;
20298;SDS011;10308;42.688;23.256;2024-03-23T07:38:58;16.75;;;15.15;;
20298;SDS011;10308;42.688;23.256;2024-03-23T07:41:24;17.73;;;15.65;;
20298;SDS011;10308;42.688;23.256;2024-03-23T07:43:53;16.40;;;13.77;;
20298;SDS011;10308;42.688;23.256;2024-03-23T07:46:20;16.70;;;13.70;;
20298;SDS011;10308;42.688;23.256;2024-03-23T07:48:47;14.02;;;12.15;;
20298;SDS011;10308;42.688;23.256;2024-03-23T07:51:20;15.00;;;12.63;;
20298;SDS011;10308;42.688;23.256;2024-03-23T07:53:48;15.00;;;13.20;;
20298;SDS011;10308;42.688;23.256;2024-03-23T07:56:14;12.80;;;11.48;;
20298;SDS011;10308;42.688;23.256;2024-03-23T07:58:43;13.48;;;12.18;;
20298;SDS011;10308;42.688;23.256;2024-03-23T08:01:09;15.20;;;12.73;;
20298;SDS011;10308;42.688;23.256;2024-03-23T08:03:37;15.82;;;12.32;;
20298;SDS011;10308;42.688;23.256;2024-03-23T08:06:07;14.82;;;11.75;;
20298;SDS011;10308;42.688;23.256;2024-03-23T08:08:36;14.07;;;12.68;;
20298;SDS011;10308;42.688;23.256;2024-03-23T08:11:02;14.27;;;12.38;;
20298;SDS011;10308;42.688;23.256;2024-03-23T08:13:30;14.65;;;11.50;;
20298;SDS011;10308;42.688;23.256;2024-03-23T08:15:56;15.98;;;12.48;;
20298;SDS011;10308;42.688;23.256;2024-03-23T08:18:23;13.20;;;11.80;;
20298;SDS011;10308;42.688;23.256;2024-03-23T08:20:55;14.50;;;13.00;;
20298;SDS011;10308;42.688;23.256;2024-03-23T08:23:22;14.15;;;12.77;;
20298;SDS011;10308;42.688;23.256;2024-03-23T08:25:50;16.05;;;13.50;;
20298;SDS011;10308;42.688;23.256;2024-03-23T08:28:17;15.00;;;13.35;;
20298;SDS011;10308;42.688;23.256;2024-03-23T08:30:43;15.23;;;13.30;;
20298;SDS011;10308;42.688;23.256;2024-03-23T08:33:10;16.17;;;13.15;;
20298;SDS011;10308;42.688;23.256;2024-03-23T08:35:36;14.07;;;12.38;;
20298;SDS011;10308;42.688;23.256;2024-03-23T08:38:03;17.23;;;14.95;;
20298;SDS011;10308;42.688;23.256;2024-03-23T08:40:29;18.70;;;14.15;;
20298;SDS011;10308;42.688;23.256;2024-03-23T08:42:58;13.25;;;11.85;;
20298;SDS011;10308;42.688;23.256;2024-03-23T08:45:24;14.27;;;12.68;;
20298;SDS011;10308;42.688;23.256;2024-03-23T08:47:51;15.85;;;12.07;;
20298;SDS011;10308;42.688;23.256;2024-03-23T08:50:17;13.30;;;11.85;;
20298;SDS011;10308;42.688;23.256;2024-03-23T08:52:47;13.73;;;12.27;;
20298;SDS011;10308;42.688;23.256;2024-03-23T08:55:12;13.52;;;11.95;;
20298;SDS011;10308;42.688;23.256;2024-03-23T08:57:39;13.85;;;12.15;;
20298;SDS011;10308;42.688;23.256;2024-03-23T09:00:07;14.07;;;12.55;;
20298;SDS011;10308;42.688;23.256;2024-03-23T09:02:36;13.40;;;11.77;;
20298;SDS011;10308;42.688;23.256;2024-03-23T09:05:02;15.70;;;11.45;;
20298;SDS011;10308;42.688;23.256;2024-03-23T09:07:30;15.48;;;12.10;;
20298;SDS011;10308;42.688;23.256;2024-03-23T09:09:56;16.42;;;13.23;;
20298;SDS011;10308;42.688;23.256;2024-03-23T09:12:23;13.98;;;12.55;;
20298;SDS011;10308;42.688;23.256;2024-03-23T09:14:49;15.57;;;12.63;;
20298;SDS011;10308;42.688;23.256;2024-03-23T09:17:18;16.15;;;13.63;;
20298;SDS011;10308;42.688;23.256;2024-03-23T09:19:44;16.23;;;14.55;;
20298;SDS011;10308;42.688;23.256;2024-03-23T09:22:10;15.73;;;14.07;;
20298;SDS011;10308;42.688;23.256;2024-03-23T09:24:36;14.45;;;12.95;;
20298;SDS011;10308;42.688;23.256;2024-03-23T09:27:06;12.82;;;11.05;;
20298;SDS011;10308;42.688;23.256;2024-03-23T09:29:32;17.55;;;12.82;;
20298;SDS011;10308;42.688;23.256;2024-03-23T09:31:59;15.10;;;13.43;;
20298;SDS011;10308;42.688;23.256;2024-03-23T09:34:26;16.70;;;13.93;;
20298;SDS011;10308;42.688;23.256;2024-03-23T09:36:53;17.75;;;13.73;;
20298;SDS011;10308;42.688;23.256;2024-03-23T09:39:19;15.40;;;12.80;;
20298;SDS011;10308;42.688;23.256;2024-03-23T09:41:46;15.57;;;13.98;;
20298;SDS011;10308;42.688;23.256;2024-03-23T09:44:12;17.23;;;13.23;;
20298;SDS011;10308;42.688;23.256;2024-03-23T09:46:40;16.35;;;14.63;;
20298;SDS011;10308;42.688;23.256;2024-03-23T09:49:06;18.67;;;13.75;;
20298;SDS011;10308;42.688;23.256;2024-03-23T09:51:36;15.35;;;13.57;;
20298;SDS011;10308;42.688;23.256;2024-03-23T09:54:02;14.63;;;13.10;;
20298;SDS011;10308;42.688;23.256;2024-03-23T09:56:30;14.00;;;12.60;;
20298;SDS011;10308;42.688;23.256;2024-03-23T09:59:02;15.48;;;13.77;;
20298;SDS011;10308;42.688;23.256;2024-03-23T10:01:29;16.20;;;13.05;;
20298;SDS011;10308;42.688;23.256;2024-03-23T10:03:55;12.73;;;11.43;;
20298;SDS011;10308;42.688;23.256;2024-03-23T10:06:23;14.77;;;12.65;;
20298;SDS011;10308;42.688;23.256;2024-03-23T10:08:51;14.25;;;12.77;;
20298;SDS011;10308;42.688;23.256;2024-03-23T10:11:20;14.77;;;12.43;;
20298;SDS011;10308;42.688;23.256;2024-03-23T10:13:46;13.20;;;11.80;;
20298;SDS011;10308;42.688;23.256;2024-03-23T10:16:20;15.40;;;12.10;;
20298;SDS011;10308;42.688;23.256;2024-03-23T10:18:47;13.48;;;11.20;;
20298;SDS011;10308;42.688;23.256;2024-03-23T10:21:14;11.20;;;9.68;;
20298;SDS011;10308;42.688;23.256;2024-03-23T10:23:41;11.27;;;9.05;;
20298;SDS011;10308;42.688;23.256;2024-03-23T10:26:17;11.07;;;8.63;;
20298;SDS011;10308;42.688;23.256;2024-03-23T10:28:54;12.68;;;11.35;;
20298;SDS011;10308;42.688;23.256;2024-03-23T10:31:25;13.60;;;9.77;;
20298;SDS011;10308;42.688;23.256;2024-03-23T10:33:52;14.70;;;12.30;;
20298;SDS011;10308;42.688;23.256;2024-03-23T10:36:20;12.30;;;9.73;;
20298;SDS011;10308;42.688;23.256;2024-03-23T10:38:46;11.07;;;9.95;;
20298;SDS011;10308;42.688;23.256;2024-03-23T10:41:17;10.77;;;9.52;;
20298;SDS011;10308;42.688;23.256;2024-03-23T10:43:44;9.48;;;8.57;;
20298;SDS011;10308;42.688;23.256;2024-03-23T10:46:13;10.77;;;8.70;;
20298;SDS011;10308;42.688;23.256;2024-03-23T10:48:39;13.05;;;9.75;;
20298;SDS011;10308;42.688;23.256;2024-03-23T10:51:06;12.57;;;9.60;;
20298;SDS011;10308;42.688;23.256;2024-03-23T10:53:33;15.25;;;8.48;;
20298;SDS011;10308;42.688;23.256;2024-03-23T10:56:02;10.57;;;8.55;;
20298;SDS011;10308;42.688;23.256;2024-03-23T10:58:31;10.15;;;8.57;;
20298;SDS011;10308;42.688;23.256;2024-03-23T11:01:04;10.25;;;8.63;;
20298;SDS011;10308;42.688;23.256;2024-03-23T11:03:31;12.27;;;8.93;;
20298;SDS011;10308;42.688;23.256;2024-03-23T11:06:01;9.93;;;8.93;;
20298;SDS011;10308;42.688;23.256;2024-03-23T11:08:31;11.18;;;8.60;;
20298;SDS011;10308;42.688;23.256;2024-03-23T11:11:14;9.18;;;7.18;;
20298;SDS011;10308;42.688;23.256;2024-03-23T11:13:46;8.90;;;6.75;;
20298;SDS011;10308;42.688;23.256;2024-03-23T11:16:15;7.65;;;6.85;;
20298;SDS011;10308;42.688;23.256;2024-03-23T11:18:41;8.95;;;7.68;;
20298;SDS011;10308;42.688;23.256;2024-03-23T11:21:10;9.63;;;6.18;;
20298;SDS011;10308;42.688;23.256;2024-03-23T11:23:38;9.30;;;6.82;;
20298;SDS011;10308;42.688;23.256;2024-03-23T11:26:07;6.68;;;5.65;;
20298;SDS011;10308;42.688;23.256;2024-03-23T11:28:34;9.50;;;5.88;;
20298;SDS011;10308;42.688;23.256;2024-03-23T11:31:13;8.23;;;6.00;;
20298;SDS011;10308;42.688;23.256;2024-03-23T11:33:40;6.53;;;5.78;;
20298;SDS011;10308;42.688;23.256;2024-03-23T11:36:08;6.03;;;5.43;;
20298;SDS011;10308;42.688;23.256;2024-03-23T11:38:36;8.07;;;6.25;;
20298;SDS011;10308;42.688;23.256;2024-03-23T11:41:05;6.03;;;5.53;;
20298;SDS011;10308;42.688;23.256;2024-03-23T11:43:32;6.90;;;6.20;;
20298;SDS011;10308;42.688;23.256;2024-03-23T11:46:01;8.82;;;5.97;;
20298;SDS011;10308;42.688;23.256;2024-03-23T11:48:30;8.20;;;5.35;;
20298;SDS011;10308;42.688;23.256;2024-03-23T11:50:59;6.05;;;5.00;;
20298;SDS011;10308;42.688;23.256;2024-03-23T11:53:26;7.30;;;5.20;;
20298;SDS011;10308;42.688;23.256;2024-03-23T11:55:55;5.93;;;5.03;;
20298;SDS011;10308;42.688;23.256;2024-03-23T11:58:22;7.75;;;5.95;;
20298;SDS011;10308;42.688;23.256;2024-03-23T12:00:50;6.85;;;5.93;;
20298;SDS011;10308;42.688;23.256;2024-03-23T12:03:17;9.45;;;5.25;;
20298;SDS011;10308;42.688;23.256;2024-03-23T12:05:49;3.50;;;3.20;;
20298;SDS011;10308;42.688;23.256;2024-03-23T12:08:22;2.60;;;2.40;;
20298;SDS011;10308;42.688;23.256;2024-03-23T12:10:52;6.35;;;3.88;;
20298;SDS011;10308;42.688;23.256;2024-03-23T12:13:19;3.58;;;2.90;;
20298;SDS011;10308;42.688;23.256;2024-03-23T12:15:47;3.10;;;2.80;;
20298;SDS011;10308;42.688;23.256;2024-03-23T12:18:17;2.67;;;2.47;;
20298;SDS011;10308;42.688;23.256;2024-03-23T12:20:46;2.83;;;2.50;;
20298;SDS011;10308;42.688;23.256;2024-03-23T12:23:15;2.60;;;1.90;;
20298;SDS011;10308;42.688;23.256;2024-03-23T12:25:42;2.58;;;2.38;;
20298;SDS011;10308;42.688;23.256;2024-03-23T12:28:08;2.85;;;1.95;;
20298;SDS011;10308;42.688;23.256;2024-03-23T12:30:36;2.15;;;1.90;;
20298;SDS011;10308;42.688;23.256;2024-03-23T12:33:04;3.00;;;2.10;;
20298;SDS011;10308;42.688;23.256;2024-03-23T12:35:33;2.15;;;1.95;;
20298;SDS011;10308;42.688;23.256;2024-03-23T12:37:59;2.10;;;1.90;;
20298;SDS011;10308;42.688;23.256;2024-03-23T12:40:28;2.40;;;1.60;;
20298;SDS011;10308;42.688;23.256;2024-03-23T12:42:54;1.70;;;1.60;;
20298;SDS011;10308;42.688;23.256;2024-03-23T12:45:21;2.67;;;2.30;;
20298;SDS011;10308;42.688;23.256;2024-03-23T12:47:47;2.28;;;2.03;;
20298;SDS011;10308;42.688;23.256;2024-03-23T12:50:14;2.15;;;1.83;;
20298;SDS011;10308;42.688;23.256;2024-03-23T12:52:40;2.00;;;1.80;;
20298;SDS011;10308;42.688;23.256;2024-03-23T12:55:07;1.65;;;1.55;;
20298;SDS011;10308;42.688;23.256;2024-03-23T12:57:34;2.70;;;2.08;;
20298;SDS011;10308;42.688;23.256;2024-03-23T13:00:02;2.00;;;1.80;;
20298;SDS011;10308;42.688;23.256;2024-03-23T13:02:29;2.10;;;1.88;;
20298;SDS011;10308;42.688;23.256;2024-03-23T13:04:56;2.33;;;2.10;;
20298;SDS011;10308;42.688;23.256;2024-03-23T13:07:24;2.05;;;1.77;;
20298;SDS011;10308;42.688;23.256;2024-03-23T13:09:51;2.00;;;1.90;;
20298;SDS011;10308;42.688;23.256;2024-03-23T13:12:17;2.15;;;1.77;;
20298;SDS011;10308;42.688;23.256;2024-03-23T13:14:46;2.53;;;1.90;;
20298;SDS011;10308;42.688;23.256;2024-03-23T13:17:12;2.10;;;2.00;;
20298;SDS011;10308;42.688;23.256;2024-03-23T13:19:40;2.80;;;1.63;;
20298;SDS011;10308;42.688;23.256;2024-03-23T13:22:06;3.47;;;1.98;;
20298;SDS011;10308;42.688;23.256;2024-03-23T13:24:33;2.17;;;1.80;;
20298;SDS011;10308;42.688;23.256;2024-03-23T13:26:59;4.03;;;1.90;;
20298;SDS011;10308;42.688;23.256;2024-03-23T13:29:29;1.90;;;1.80;;
20298;SDS011;10308;42.688;23.256;2024-03-23T13:31:57;2.13;;;2.00;;
20298;SDS011;10308;42.688;23.256;2024-03-23T13:34:24;2.08;;;1.88;;
20298;SDS011;10308;42.688;23.256;2024-03-23T13:36:50;2.00;;;1.90;;
20298;SDS011;10308;42.688;23.256;2024-03-23T13:39:18;2.67;;;2.33;;
20298;SDS011;10308;42.688;23.256;2024-03-23T13:41:44;2.65;;;2.45;;
20298;SDS011;10308;42.688;23.256;2024-03-23T13:44:11;3.65;;;2.40;;
20298;SDS011;10308;42.688;23.256;2024-03-23T13:46:38;2.67;;;2.28;;
20298;SDS011;10308;42.688;23.256;2024-03-23T13:49:06;2.28;;;2.05;;
20298;SDS011;10308;42.688;23.256;2024-03-23T13:51:32;3.60;;;2.60;;
20298;SDS011;10308;42.688;23.256;2024-03-23T13:54:00;3.28;;;2.40;;
20298;SDS011;10308;42.688;23.256;2024-03-23T13:56:26;2.60;;;2.40;;
20298;SDS011;10308;42.688;23.256;2024-03-23T13:58:54;2.97;;;2.30;;
20298;SDS011;10308;42.688;23.256;2024-03-23T14:01:20;2.40;;;2.20;;
20298;SDS011;10308;42.688;23.256;2024-03-23T14:03:48;2.38;;;2.10;;
20298;SDS011;10308;42.688;23.256;2024-03-23T14:06:17;3.35;;;2.40;;
20298;SDS011;10308;42.688;23.256;2024-03-23T14:08:44;2.67;;;2.47;;
20298;SDS011;10308;42.688;23.256;2024-03-23T14:11:10;2.85;;;2.40;;
20298;SDS011;10308;42.688;23.256;2024-03-23T14:13:37;3.55;;;2.58;;
20298;SDS011;10308;42.688;23.256;2024-03-23T14:16:04;5.32;;;3.03;;
20298;SDS011;10308;42.688;23.256;2024-03-23T14:18:31;2.90;;;2.40;;
20298;SDS011;10308;42.688;23.256;2024-03-23T14:20:57;2.65;;;2.45;;
20298;SDS011;10308;42.688;23.256;2024-03-23T14:23:28;3.22;;;2.80;;
20298;SDS011;10308;42.688;23.256;2024-03-23T14:25:55;3.60;;;2.80;;
20298;SDS011;10308;42.688;23.256;2024-03-23T14:28:23;3.90;;;2.70;;
20298;SDS011;10308;42.688;23.256;2024-03-23T14:30:49;4.50;;;2.72;;
20298;SDS011;10308;42.688;23.256;2024-03-23T14:33:17;2.88;;;2.67;;
20298;SDS011;10308;42.688;23.256;2024-03-23T14:35:51;3.13;;;2.47;;
20298;SDS011;10308;42.688;23.256;2024-03-23T14:38:18;2.97;;;2.70;;
20298;SDS011;10308;42.688;23.256;2024-03-23T14:40:47;3.40;;;2.58;;
20298;SDS011;10308;42.688;23.256;2024-03-23T14:43:14;3.47;;;2.95;;
20298;SDS011;10308;42.688;23.256;2024-03-23T14:45:45;3.55;;;2.90;;
20298;SDS011;10308;42.688;23.256;2024-03-23T14:48:35;3.22;;;2.85;;
20298;SDS011;10308;42.688;23.256;2024-03-23T14:51:01;3.30;;;3.00;;
20298;SDS011;10308;42.688;23.256;2024-03-23T14:53:30;3.28;;;2.97;;
20298;SDS011;10308;42.688;23.256;2024-03-23T14:55:58;3.20;;;2.90;;
20298;SDS011;10308;42.688;23.256;2024-03-23T14:58:26;3.60;;;3.00;;
20298;SDS011;10308;42.688;23.256;2024-03-23T15:00:52;3.60;;;3.30;;
20298;SDS011;10308;42.688;23.256;2024-03-23T15:03:19;3.40;;;3.10;;
20298;SDS011;10308;42.688;23.256;2024-03-23T15:05:54;3.15;;;2.72;;
20298;SDS011;10308;42.688;23.256;2024-03-23T15:08:22;4.38;;;2.90;;
20298;SDS011;10308;42.688;23.256;2024-03-23T15:10:50;3.20;;;2.90;;
20298;SDS011;10308;42.688;23.256;2024-03-23T15:13:19;3.28;;;2.95;;